Ballerina — SKNY — position and weather

sailwx.info

Track history (hours):
 
Tides and Currents Weather Stations Pressure Air Temp Water Temp Dewpoint Dewpoint Depression Visibility Wind Speed Wind Dir Waves Ship Positions

Ballerina

Last reported at 2016-May-27 17:24 UTC. Time now 2016-May-27 22:04 UTC.
Position N 59°23' E 018°06'.

Type: Passenger vessel. MMSI: 265550720.

Date/timePositionNaut miles runAvg speedWind from/ knotsBaromVisibWave heightAir tempDewpointWater temp
2016-May-27 17:24N 59°23' E 018°06'1 0.6
2016-May-27 16:08N 59°22' E 018°06'1 0.5
2016-May-27 14:31N 59°23' E 018°06'1 0.1
2016-May-27 08:09N 59°22' E 018°06'1 1.0
2016-May-27 07:13N 59°23' E 018°06'1 0.8
2016-May-27 06:21N 59°22' E 018°06'1 0.8
2016-May-27 05:32N 59°23' E 018°06'0 0.2
2016-May-27 04:15N 59°23' E 018°06'0 0.0
2016-May-26 17:32N 59°23' E 018°06'0 0.3
2016-May-26 16:04N 59°22' E 018°06'1 1.0
2016-May-26 15:14N 59°23' E 018°06'1 1.0
2016-May-26 14:33N 59°22' E 018°06'1 0.1
2016-May-26 08:12N 59°22' E 018°06'2 1.7
2016-May-26 07:14N 59°23' E 018°06'1 1.6
2016-May-26 06:27N 59°22' E 018°06'1 1.0
2016-May-26 05:33N 59°23' E 018°06'0 0.1
2016-May-26 04:17N 59°23' E 018°06'1 0.1
2016-May-25 17:29N 59°22' E 018°06'0 0.1
2016-May-25 16:03N 59°22' E 018°06'1 0.9
2016-May-25 15:14N 59°23' E 018°06'0 0.4
2016-May-25 14:32N 59°23' E 018°06'1 0.2
2016-May-25 08:10N 59°22' E 018°06'1 1.3
2016-May-25 07:12N 59°23' E 018°05'1 1.0
2016-May-25 06:26N 59°22' E 018°06'1 0.8
2016-May-25 05:32N 59°23' E 018°06'0 0.1
2016-May-25 04:16N 59°23' E 018°06'1 0.1
2016-May-24 17:27N 59°22' E 018°06'1 0.9
2016-May-24 16:30N 59°22' E 018°06'1 1.0
2016-May-24 15:13N 59°23' E 018°06'0 0.1
2016-May-24 14:29N 59°23' E 018°06'1 0.1
2016-May-24 08:09N 59°22' E 018°06'1 0.8
2016-May-24 07:13N 59°23' E 018°06'1 2.0
2016-May-24 06:29N 59°22' E 018°06'1 1.4
2016-May-24 05:32N 59°23' E 018°06'0 0.2
2016-May-24 04:18N 59°23' E 018°06'1 0.1
2016-May-23 17:33N 59°22' E 018°06'1 0.4
2016-May-23 16:07N 59°22' E 018°06'3 4.5
2016-May-23 15:32N 59°24' E 018°08'2 2.0
2016-May-23 14:33N 59°23' E 018°06'1 0.1
2016-May-23 08:05N 59°22' E 018°06'2 2.5
2016-May-23 07:28N 59°23' E 018°08'2 1.5
2016-May-23 06:24N 59°22' E 018°06'1 0.9
2016-May-23 05:32N 59°23' E 018°06'1 1.5
2016-May-23 04:32N 59°24' E 018°08'2 0.1
2016-May-22 16:31N 59°23' E 018°06'1 0.6
2016-May-22 15:10N 59°22' E 018°06'2 3.3
2016-May-22 14:31N 59°24' E 018°08'1 0.8
2016-May-22 13:26N 59°24' E 018°06'2 0.7
2016-May-22 11:09N 59°22' E 018°06'2 3.5
2016-May-22 10:33N 59°24' E 018°09'2 2.0
2016-May-22 09:32N 59°23' E 018°06'1 0.5
2016-May-22 08:09N 59°22' E 018°06'2 2.6
2016-May-22 07:30N 59°24' E 018°08'3 0.2
2016-May-21 19:06N 59°23' E 018°03'1 0.5
2016-May-21 16:30N 59°23' E 018°06'1 0.8
2016-May-21 15:10N 59°22' E 018°06'3 3.9
2016-May-21 14:30N 59°24' E 018°08'2 1.9
2016-May-21 13:32N 59°23' E 018°06'1 0.3
2016-May-21 11:09N 59°22' E 018°06'3 4.3
2016-May-21 10:33N 59°24' E 018°09'2 2.3
2016-May-21 09:33N 59°23' E 018°06'1 0.8
2016-May-21 08:13N 59°22' E 018°06'1 0.1
2016-May-20 17:30N 59°22' E 018°06'0 0.1
2016-May-20 16:05N 59°22' E 018°06'1 0.7
2016-May-20 15:13N 59°23' E 018°05'0 0.3
2016-May-20 14:30N 59°23' E 018°06'0 0.1
2016-May-20 08:07N 59°22' E 018°06'2 2.2
2016-May-20 07:25N 59°24' E 018°08'1 1.5
2016-May-20 06:24N 59°22' E 018°06'1 0.9
2016-May-20 05:33N 59°23' E 018°05'0 0.3
2016-May-20 04:19N 59°23' E 018°05'1 0.1
2016-May-19 17:30N 59°23' E 018°06'1 0.5
2016-May-19 16:06N 59°22' E 018°06'2 4.0
2016-May-19 15:34N 59°24' E 018°08'2 1.8
2016-May-19 14:31N 59°23' E 018°06'1 0.2
2016-May-19 08:11N 59°22' E 018°06'2 1.6
2016-May-19 07:13N 59°23' E 018°06'1 1.0
2016-May-19 06:25N 59°22' E 018°06'1 0.8
2016-May-19 05:33N 59°23' E 018°05'1 1.4
2016-May-19 04:32N 59°24' E 018°08'2 0.1
2016-May-18 17:30N 59°23' E 018°06'1 0.8
2016-May-18 16:07N 59°22' E 018°06'3 4.8
2016-May-18 15:33N 59°24' E 018°08'2 2.0
2016-May-18 14:33N 59°23' E 018°06'0 0.1
2016-May-18 08:09N 59°22' E 018°06'1 1.7
2016-May-18 07:22N 59°24' E 018°07'1 1.5
2016-May-18 06:27N 59°22' E 018°06'1 0.6
2016-May-18 05:33N 59°23' E 018°06'2 1.4
2016-May-18 04:27N 59°24' E 018°08'2 0.1
2016-May-17 17:33N 59°22' E 018°06'  
Track history (hours):
 
Tides and Currents Weather Stations Pressure Air Temp Water Temp Dewpoint Dewpoint Depression Visibility Wind Speed Wind Dir Waves Ship Positions

Ballerina

Last reported at 2016-May-27 17:24 UTC. Time now 2016-May-27 22:04 UTC.
Position N 59°23' E 018°06'.

Type: Passenger vessel. MMSI: 265550720.

Date/timePositionNaut miles runAvg speedWind from/ knotsBaromVisibWave heightAir tempDewpointWater temp
2016-May-27 17:24N 59°23' E 018°06'1 0.6
2016-May-27 16:08N 59°22' E 018°06'1 0.5
2016-May-27 14:31N 59°23' E 018°06'1 0.1
2016-May-27 08:09N 59°22' E 018°06'1 1.0
2016-May-27 07:13N 59°23' E 018°06'1 0.8
2016-May-27 06:21N 59°22' E 018°06'1 0.8
2016-May-27 05:32N 59°23' E 018°06'0 0.2
2016-May-27 04:15N 59°23' E 018°06'0 0.0
2016-May-26 17:32N 59°23' E 018°06'0 0.3
2016-May-26 16:04N 59°22' E 018°06'1 1.0
2016-May-26 15:14N 59°23' E 018°06'1 1.0
2016-May-26 14:33N 59°22' E 018°06'1 0.1
2016-May-26 08:12N 59°22' E 018°06'2 1.7
2016-May-26 07:14N 59°23' E 018°06'1 1.6
2016-May-26 06:27N 59°22' E 018°06'1 1.0
2016-May-26 05:33N 59°23' E 018°06'0 0.1
2016-May-26 04:17N 59°23' E 018°06'1 0.1
2016-May-25 17:29N 59°22' E 018°06'0 0.1
2016-May-25 16:03N 59°22' E 018°06'1 0.9
2016-May-25 15:14N 59°23' E 018°06'0 0.4
2016-May-25 14:32N 59°23' E 018°06'1 0.2
2016-May-25 08:10N 59°22' E 018°06'1 1.3
2016-May-25 07:12N 59°23' E 018°05'1 1.0
2016-May-25 06:26N 59°22' E 018°06'1 0.8
2016-May-25 05:32N 59°23' E 018°06'0 0.1
2016-May-25 04:16N 59°23' E 018°06'1 0.1
2016-May-24 17:27N 59°22' E 018°06'1 0.9
2016-May-24 16:30N 59°22' E 018°06'1 1.0
2016-May-24 15:13N 59°23' E 018°06'0 0.1
2016-May-24 14:29N 59°23' E 018°06'1 0.1
2016-May-24 08:09N 59°22' E 018°06'1 0.8
2016-May-24 07:13N 59°23' E 018°06'1 2.0
2016-May-24 06:29N 59°22' E 018°06'1 1.4
2016-May-24 05:32N 59°23' E 018°06'0 0.2
2016-May-24 04:18N 59°23' E 018°06'1 0.1
2016-May-23 17:33N 59°22' E 018°06'1 0.4
2016-May-23 16:07N 59°22' E 018°06'3 4.5
2016-May-23 15:32N 59°24' E 018°08'2 2.0
2016-May-23 14:33N 59°23' E 018°06'1 0.1
2016-May-23 08:05N 59°22' E 018°06'2 2.5
2016-May-23 07:28N 59°23' E 018°08'2 1.5
2016-May-23 06:24N 59°22' E 018°06'1 0.9
2016-May-23 05:32N 59°23' E 018°06'1 1.5
2016-May-23 04:32N 59°24' E 018°08'2 0.1
2016-May-22 16:31N 59°23' E 018°06'1 0.6
2016-May-22 15:10N 59°22' E 018°06'2 3.3
2016-May-22 14:31N 59°24' E 018°08'1 0.8
2016-May-22 13:26N 59°24' E 018°06'2 0.7
2016-May-22 11:09N 59°22' E 018°06'2 3.5
2016-May-22 10:33N 59°24' E 018°09'2 2.0
2016-May-22 09:32N 59°23' E 018°06'1 0.5
2016-May-22 08:09N 59°22' E 018°06'2 2.6
2016-May-22 07:30N 59°24' E 018°08'3 0.2
2016-May-21 19:06N 59°23' E 018°03'1 0.5
2016-May-21 16:30N 59°23' E 018°06'1 0.8
2016-May-21 15:10N 59°22' E 018°06'3 3.9
2016-May-21 14:30N 59°24' E 018°08'2 1.9
2016-May-21 13:32N 59°23' E 018°06'1 0.3
2016-May-21 11:09N 59°22' E 018°06'3 4.3
2016-May-21 10:33N 59°24' E 018°09'2 2.3
2016-May-21 09:33N 59°23' E 018°06'1 0.8
2016-May-21 08:13N 59°22' E 018°06'1 0.1
2016-May-20 17:30N 59°22' E 018°06'0 0.1
2016-May-20 16:05N 59°22' E 018°06'1 0.7
2016-May-20 15:13N 59°23' E 018°05'0 0.3
2016-May-20 14:30N 59°23' E 018°06'0 0.1
2016-May-20 08:07N 59°22' E 018°06'2 2.2
2016-May-20 07:25N 59°24' E 018°08'1 1.5
2016-May-20 06:24N 59°22' E 018°06'1 0.9
2016-May-20 05:33N 59°23' E 018°05'0 0.3
2016-May-20 04:19N 59°23' E 018°05'1 0.1
2016-May-19 17:30N 59°23' E 018°06'1 0.5
2016-May-19 16:06N 59°22' E 018°06'2 4.0
2016-May-19 15:34N 59°24' E 018°08'2 1.8
2016-May-19 14:31N 59°23' E 018°06'1 0.2
2016-May-19 08:11N 59°22' E 018°06'2 1.6
2016-May-19 07:13N 59°23' E 018°06'1 1.0
2016-May-19 06:25N 59°22' E 018°06'1 0.8
2016-May-19 05:33N 59°23' E 018°05'1 1.4
2016-May-19 04:32N 59°24' E 018°08'2 0.1
2016-May-18 17:30N 59°23' E 018°06'1 0.8
2016-May-18 16:07N 59°22' E 018°06'3 4.8
2016-May-18 15:33N 59°24' E 018°08'2 2.0
2016-May-18 14:33N 59°23' E 018°06'0 0.1
2016-May-18 08:09N 59°22' E 018°06'1 1.7
2016-May-18 07:22N 59°24' E 018°07'1 1.5
2016-May-18 06:27N 59°22' E 018°06'1 0.6
2016-May-18 05:33N 59°23' E 018°06'2 1.4
2016-May-18 04:27N 59°24' E 018°08'2 0.1
2016-May-17 17:33N 59°22' E 018°06'  

Dump ship's entire track history